Time;durP1;ratioP1;P1;durP2;ratioP2;P2;SDS_P1;SDS_P2;PMS_P1;PMS_P2;Temp;Humidity;BMP_temperature;BMP_pressure;BME280_temperature;BME280_humidity;BME280_pressure;Samples;Min_cycle;Max_cycle;Signal;HPM_P1;HPM_P2
2023/09/26 00:00:21;;;;;;;;;;;;;;;19.61;70.25;99632.66;5071024;28;19931;-75
2023/09/26 00:02:47;;;;;;;;;;;;;;;19.81;69.43;99621.84;5071215;28;19920;-75
2023/09/26 00:05:13;;;;;;;;;;;;;;;19.59;69.94;99626.56;5071099;28;19921;-75
2023/09/26 00:07:38;;;;;;;;;;;;;;;19.45;71.01;99630.09;5079048;28;20366;-75
2023/09/26 00:10:05;;;;;;;;;;;;;;;19.45;70.91;99632.94;5090127;28;20360;-75
2023/09/26 00:12:30;;;;;;;;;;;;;;;19.68;69.86;99641.25;5077110;28;20007;-75
2023/09/26 00:14:56;;;;;;;;;;;;;;;19.58;69.84;99636.28;5082651;28;19966;-75
2023/09/26 00:17:21;;;;;;;;;;;;;;;19.73;69.35;99640.84;5072206;28;20419;-75
2023/09/26 00:19:46;;;;;;;;;;;;;;;19.50;69.63;99630.53;5071023;28;19916;-75
2023/09/26 00:22:12;;;;;;;;;;;;;;;19.36;70.03;99638.94;5074426;28;19950;-75
2023/09/26 00:24:37;;;;;;;;;;;;;;;19.17;70.43;99646.44;5075442;28;20389;-75
2023/09/26 00:27:02;;;;;;;;;;;;;;;18.79;71.69;99643.59;5086394;28;19917;-75
2023/09/26 00:29:27;;;;;;;;;;;;;;;18.50;73.58;99639.59;5077786;28;20275;-75
2023/09/26 00:31:53;;;;;;;;;;;;;;;18.50;73.46;99645.28;5074466;28;19921;-75
2023/09/26 00:34:19;;;;;;;;;;;;;;;18.80;72.46;99650.06;5074919;28;19977;-75
2023/09/26 00:36:45;;;;;;;;;;;;;;;18.14;74.08;99639.13;5074291;28;19912;-75
2023/09/26 00:39:10;;;;;;;;;;;;;;;18.06;74.19;99641.84;5093625;28;20011;-75
2023/09/26 00:41:35;;;;;;;;;;;;;;;18.28;73.13;99635.66;5092819;28;20026;-74
2023/09/26 00:44:01;;;;;;;;;;;;;;;18.24;72.95;99641.28;5086959;28;19921;-75
2023/09/26 00:46:27;;;;;;;;;;;;;;;18.58;71.91;99638.50;5078268;28;19974;-75
2023/09/26 00:48:52;;;;;;;;;;;;;;;18.59;71.60;99645.78;5074169;28;19952;-75
2023/09/26 00:51:17;;;;;;;;;;;;;;;18.62;71.20;99642.19;5073999;28;19955;-75
2023/09/26 00:53:43;;;;;;;;;;;;;;;18.69;70.82;99643.47;5074161;28;19924;-75
2023/09/26 00:56:09;;;;;;;;;;;;;;;18.44;72.01;99641.97;5072652;28;19916;-75
2023/09/26 00:58:35;;;;;;;;;;;;;;;18.52;72.19;99637.19;5074301;28;20007;-75
2023/09/26 01:01:00;;;;;;;;;;;;;;;18.55;72.20;99638.44;5073232;28;19944;-75
2023/09/26 01:03:26;;;;;;;;;;;;;;;18.55;72.15;99633.59;5073986;28;19963;-75
2023/09/26 01:05:51;;;;;;;;;;;;;;;18.42;72.77;99630.22;5073789;28;20352;-75
2023/09/26 01:08:17;;;;;;;;;;;;;;;18.47;72.44;99634.72;5073910;28;19924;-75
2023/09/26 01:10:43;;;;;;;;;;;;;;;18.51;72.44;99627.06;5079329;28;20308;-74
2023/09/26 01:13:08;;;;;;;;;;;;;;;18.60;72.06;99638.94;5087154;28;19932;-74
2023/09/26 01:15:38;;;;;;;;;;;;;;;18.70;72.05;99634.59;5075091;28;19924;-75
2023/09/26 01:18:08;;;;;;;;;;;;;;;18.78;71.63;99641.13;5093476;28;19997;-74
2023/09/26 01:20:34;;;;;;;;;;;;;;;18.94;71.40;99638.91;5093747;28;19912;-75
2023/09/26 01:23:02;;;;;;;;;;;;;;;19.05;71.20;99644.72;5092590;28;19912;-75
2023/09/26 01:25:27;;;;;;;;;;;;;;;19.19;70.54;99649.72;5091937;28;20402;-75
2023/09/26 01:27:52;;;;;;;;;;;;;;;19.28;69.84;99655.06;5073587;28;19923;-74
2023/09/26 01:30:18;;;;;;;;;;;;;;;19.39;69.33;99658.00;5076626;28;19924;-74
2023/09/26 01:32:43;;;;;;;;;;;;;;;19.35;69.41;99654.31;5072330;28;19920;-75
2023/09/26 01:35:09;;;;;;;;;;;;;;;19.35;69.21;99652.28;5073400;28;20350;-75
2023/09/26 01:37:34;;;;;;;;;;;;;;;19.29;69.56;99656.69;5073238;28;20004;-74
2023/09/26 01:39:59;;;;;;;;;;;;;;;19.34;69.24;99653.50;5073206;28;19912;-74
2023/09/26 01:42:25;;;;;;;;;;;;;;;19.33;69.79;99654.69;5072967;28;20011;-74
2023/09/26 01:44:50;;;;;;;;;;;;;;;19.25;70.61;99652.19;5073386;28;20370;-75
2023/09/26 01:47:21;;;;;;;;;;;;;;;19.14;71.24;99647.22;5074000;28;19935;-74
2023/09/26 01:49:46;;;;;;;;;;;;;;;19.10;71.81;99652.06;5072302;28;20350;-75
2023/09/26 01:52:12;;;;;;;;;;;;;;;19.27;71.03;99650.59;5071540;28;19923;-74
2023/09/26 01:54:37;;;;;;;;;;;;;;;19.29;70.66;99651.03;5072796;28;19969;-75
2023/09/26 01:57:02;;;;;;;;;;;;;;;19.27;70.70;99649.78;5072836;28;19912;-75
2023/09/26 01:59:27;;;;;;;;;;;;;;;19.30;70.30;99649.00;5071548;28;19916;-75
2023/09/26 02:01:53;;;;;;;;;;;;;;;19.24;70.84;99656.25;5073421;28;19920;-74
2023/09/26 02:04:18;;;;;;;;;;;;;;;19.20;71.06;99651.34;5092371;28;19916;-74
2023/09/26 02:06:43;;;;;;;;;;;;;;;19.26;70.79;99654.66;5074882;28;19970;-75
2023/09/26 02:09:09;;;;;;;;;;;;;;;19.22;70.95;99657.44;5071787;28;19916;-74
2023/09/26 02:11:34;;;;;;;;;;;;;;;19.20;71.08;99645.69;5071241;28;19912;-75
2023/09/26 02:13:59;;;;;;;;;;;;;;;19.21;71.00;99650.16;5072558;28;19913;-74
2023/09/26 02:16:24;;;;;;;;;;;;;;;19.25;70.69;99652.19;5072620;28;20334;-75
2023/09/26 02:18:50;;;;;;;;;;;;;;;19.31;70.27;99650.66;5072708;28;19919;-75
2023/09/26 02:21:15;;;;;;;;;;;;;;;19.40;70.02;99648.28;5072284;28;19920;-75
2023/09/26 02:23:41;;;;;;;;;;;;;;;19.34;70.45;99655.53;5072352;28;20000;-75
2023/09/26 02:26:06;;;;;;;;;;;;;;;19.35;70.61;99637.31;5074234;28;19912;-74
2023/09/26 02:28:31;;;;;;;;;;;;;;;19.43;70.20;99658.88;5085625;28;19923;-75
2023/09/26 02:30:57;;;;;;;;;;;;;;;19.47;69.83;99653.19;5072349;28;19947;-75
2023/09/26 02:33:22;;;;;;;;;;;;;;;19.40;70.18;99656.78;5072141;28;19969;-74
2023/09/26 02:35:47;;;;;;;;;;;;;;;19.42;69.97;99657.22;5072141;28;19988;-74
2023/09/26 02:38:12;;;;;;;;;;;;;;;19.07;71.14;99656.47;5072036;28;19913;-74
2023/09/26 02:40:38;;;;;;;;;;;;;;;19.08;71.14;99660.13;5089528;28;19916;-74
2023/09/26 02:43:03;;;;;;;;;;;;;;;19.06;71.38;99662.53;5077686;28;20031;-75
2023/09/26 02:45:30;;;;;;;;;;;;;;;19.04;71.58;99664.94;5081760;28;19916;-75
2023/09/26 02:47:55;;;;;;;;;;;;;;;18.97;71.75;99659.19;5091320;28;19919;-74
2023/09/26 02:50:22;;;;;;;;;;;;;;;19.01;71.72;99657.22;5091982;28;19916;-75
2023/09/26 02:52:47;;;;;;;;;;;;;;;19.06;71.97;99656.84;5091966;28;19981;-75
2023/09/26 02:55:12;;;;;;;;;;;;;;;18.84;72.82;99656.63;5092137;28;19944;-75
2023/09/26 02:57:38;;;;;;;;;;;;;;;18.82;73.02;99656.16;5082867;28;19912;-75
2023/09/26 03:00:16;;;;;;;;;;;;;;;18.90;73.02;99665.59;5071603;28;19995;-75
2023/09/26 03:02:42;;;;;;;;;;;;;;;19.03;72.52;99660.47;5071672;28;20292;-74
2023/09/26 03:05:11;;;;;;;;;;;;;;;19.10;72.57;99659.72;5071327;28;20474;-75
2023/09/26 03:07:36;;;;;;;;;;;;;;;19.09;71.73;99656.09;5071823;28;19920;-75
2023/09/26 03:10:04;;;;;;;;;;;;;;;19.08;71.96;99654.47;5071727;28;19913;-75
2023/09/26 03:12:29;;;;;;;;;;;;;;;18.77;72.33;99662.19;5070933;28;20294;-75
2023/09/26 03:14:56;;;;;;;;;;;;;;;18.27;74.88;99656.69;5078172;28;19916;-75
2023/09/26 03:17:21;;;;;;;;;;;;;;;18.49;73.96;99667.09;5090918;28;19981;-74
2023/09/26 03:19:46;;;;;;;;;;;;;;;18.29;74.42;99663.59;5090566;28;19912;-74
2023/09/26 03:22:12;;;;;;;;;;;;;;;18.10;75.62;99656.06;5084255;28;19924;-74
2023/09/26 03:24:37;;;;;;;;;;;;;;;18.28;74.87;99663.97;5072737;28;20438;-74
2023/09/26 03:27:02;;;;;;;;;;;;;;;18.21;75.07;99659.84;5070199;28;19966;-75
2023/09/26 03:29:27;;;;;;;;;;;;;;;18.19;75.23;99655.75;5071603;28;19935;-75
2023/09/26 03:31:53;;;;;;;;;;;;;;;18.01;76.23;99653.47;5087165;28;19916;-75
2023/09/26 03:34:18;;;;;;;;;;;;;;;17.42;78.88;99659.41;5086938;28;19916;-74
2023/09/26 03:36:43;;;;;;;;;;;;;;;16.69;83.72;99648.72;5070224;28;19919;-74
2023/09/26 03:39:09;;;;;;;;;;;;;;;16.75;83.67;99649.22;5071417;28;19912;-74
2023/09/26 03:41:34;;;;;;;;;;;;;;;16.89;82.75;99655.16;5070105;28;20015;-74
2023/09/26 03:43:59;;;;;;;;;;;;;;;16.97;82.67;99661.78;5072124;28;19986;-74
2023/09/26 03:46:25;;;;;;;;;;;;;;;17.04;82.27;99667.59;5081661;28;19916;-74
2023/09/26 03:48:50;;;;;;;;;;;;;;;17.13;82.01;99667.34;5071375;28;19966;-74
2023/09/26 03:51:15;;;;;;;;;;;;;;;17.42;80.62;99673.53;5071504;28;19969;-74
2023/09/26 03:53:41;;;;;;;;;;;;;;;17.44;80.07;99671.16;5071213;28;19918;-75
2023/09/26 03:56:07;;;;;;;;;;;;;;;17.42;79.73;99669.88;5092223;28;19957;-75
2023/09/26 03:58:33;;;;;;;;;;;;;;;17.16;81.35;99672.28;5094151;28;20378;-74
2023/09/26 04:01:08;;;;;;;;;;;;;;;17.47;80.48;99676.03;5077924;28;19970;-74
2023/09/26 04:03:34;;;;;;;;;;;;;;;17.75;79.04;99669.25;5081495;28;19926;-75
2023/09/26 04:05:59;;;;;;;;;;;;;;;17.95;78.38;99669.97;5077336;28;19920;-74
2023/09/26 04:08:24;;;;;;;;;;;;;;;17.97;78.18;99675.22;5073584;28;19916;-74
2023/09/26 04:10:49;;;;;;;;;;;;;;;17.50;80.18;99674.47;5075021;28;20396;-75
2023/09/26 04:13:15;;;;;;;;;;;;;;;17.31;81.76;99672.53;5078497;28;19931;-74
2023/09/26 04:15:40;;;;;;;;;;;;;;;17.46;81.48;99680.06;5093094;28;20503;-75
2023/09/26 04:18:06;;;;;;;;;;;;;;;17.10;83.23;99685.06;5091914;28;19919;-74
2023/09/26 04:20:31;;;;;;;;;;;;;;;17.30;82.25;99685.81;5089923;28;19924;-75
2023/09/26 04:22:56;;;;;;;;;;;;;;;17.31;82.19;99686.66;5091193;28;19931;-74
2023/09/26 04:25:21;;;;;;;;;;;;;;;16.94;83.86;99691.59;5079445;28;19999;-74
2023/09/26 04:27:47;;;;;;;;;;;;;;;16.85;84.88;99685.34;5082919;28;19923;-75
2023/09/26 04:30:12;;;;;;;;;;;;;;;17.07;84.38;99695.09;5074307;28;19913;-74
2023/09/26 04:32:37;;;;;;;;;;;;;;;17.04;84.39;99701.50;5076413;28;19912;-75
2023/09/26 04:35:03;;;;;;;;;;;;;;;16.95;84.57;99695.22;5073951;28;19920;-75
2023/09/26 04:37:29;;;;;;;;;;;;;;;16.93;84.46;99687.13;5074135;28;19917;-74
2023/09/26 04:39:54;;;;;;;;;;;;;;;17.07;84.14;99686.63;5082102;28;19990;-75
2023/09/26 04:42:19;;;;;;;;;;;;;;;17.29;83.34;99694.69;5090836;28;19924;-75
2023/09/26 04:44:45;;;;;;;;;;;;;;;17.44;82.47;99693.75;5079624;28;20376;-72
2023/09/26 04:47:10;;;;;;;;;;;;;;;17.23;82.49;99694.19;5073532;28;19912;-71
2023/09/26 04:49:35;;;;;;;;;;;;;;;17.36;81.98;99692.00;5074196;28;19920;-69
2023/09/26 04:52:02;;;;;;;;;;;;;;;17.20;82.68;99703.44;5074224;28;19928;-71
2023/09/26 04:54:27;;;;;;;;;;;;;;;17.15;83.24;99701.72;5073683;28;19963;-71
2023/09/26 04:56:52;;;;;;;;;;;;;;;17.42;82.36;99704.63;5082241;28;20029;-71
2023/09/26 04:59:17;;;;;;;;;;;;;;;17.52;82.04;99704.00;5088168;28;19923;-73
2023/09/26 05:01:45;;;;;;;;;;;;;;;17.71;81.30;99707.94;5074067;28;19921;-70
2023/09/26 05:04:10;;;;;;;;;;;;;;;17.70;80.95;99706.31;5076230;28;20015;-73
2023/09/26 05:06:36;;;;;;;;;;;;;;;17.73;80.88;99708.38;5088010;28;20442;-72
2023/09/26 05:09:01;;;;;;;;;;;;;;;17.85;80.83;99715.03;5073604;28;19919;-72
2023/09/26 05:11:27;;;;;;;;;;;;;;;17.92;80.54;99709.50;5090875;28;19926;-72
2023/09/26 05:13:53;;;;;;;;;;;;;;;18.04;80.25;99714.16;5080941;28;20018;-71
2023/09/26 05:16:18;;;;;;;;;;;;;;;18.18;79.81;99716.41;5079081;28;20439;-72
2023/09/26 05:18:44;;;;;;;;;;;;;;;18.30;78.99;99710.53;5092674;28;20418;-71
2023/09/26 05:21:09;;;;;;;;;;;;;;;18.19;79.46;99710.38;5073187;28;19916;-72
2023/09/26 05:23:35;;;;;;;;;;;;;;;17.60;81.40;99712.59;5073591;28;19947;-72
2023/09/26 05:26:18;;;;;;;;;;;;;;;17.47;82.30;99717.66;5093708;28;19912;-72
2023/09/26 05:28:44;;;;;;;;;;;;;;;17.47;82.66;99721.28;5093411;28;19923;-72
2023/09/26 05:31:09;;;;;;;;;;;;;;;17.76;81.29;99724.63;5081168;28;20306;-72
2023/09/26 05:33:35;;;;;;;;;;;;;;;17.84;80.90;99714.25;5076243;28;19920;-72
2023/09/26 05:36:00;;;;;;;;;;;;;;;17.75;81.43;99723.00;5072574;28;19990;-72
2023/09/26 05:38:26;;;;;;;;;;;;;;;17.95;80.41;99715.22;5072998;28;19920;-72
2023/09/26 05:40:51;;;;;;;;;;;;;;;18.09;79.70;99716.69;5077966;28;19916;-71
2023/09/26 05:43:16;;;;;;;;;;;;;;;18.20;79.46;99714.84;5079693;28;19951;-69
2023/09/26 05:45:41;;;;;;;;;;;;;;;18.33;79.03;99717.44;5083290;28;19986;-72
2023/09/26 05:48:07;;;;;;;;;;;;;;;18.42;79.22;99720.00;5075543;28;19920;-71
2023/09/26 05:50:32;;;;;;;;;;;;;;;18.52;78.89;99722.16;5070860;28;19916;-72
2023/09/26 05:53:00;;;;;;;;;;;;;;;18.57;78.97;99715.34;5070222;28;19927;-72
2023/09/26 05:55:25;;;;;;;;;;;;;;;18.78;78.58;99720.47;5073528;28;19923;-71
2023/09/26 05:57:50;;;;;;;;;;;;;;;19.07;77.11;99718.84;5074475;28;20422;-73
2023/09/26 06:00:16;;;;;;;;;;;;;;;19.24;76.31;99722.25;5071910;28;19928;-72
2023/09/26 06:02:42;;;;;;;;;;;;;;;19.19;76.41;99729.09;5081430;28;20394;-73
2023/09/26 06:05:07;;;;;;;;;;;;;;;19.26;76.46;99721.88;5075239;28;19985;-71
2023/09/26 06:07:33;;;;;;;;;;;;;;;19.25;76.57;99723.06;5068653;28;19927;-69
2023/09/26 06:09:58;;;;;;;;;;;;;;;19.12;77.46;99723.34;5077074;28;19920;-70
2023/09/26 06:12:24;;;;;;;;;;;;;;;19.27;77.17;99724.31;5076455;28;19993;-68
2023/09/26 06:14:49;;;;;;;;;;;;;;;19.41;76.65;99726.47;5079218;28;20454;-70
2023/09/26 06:17:14;;;;;;;;;;;;;;;19.56;76.15;99729.47;5083170;28;19931;-69
2023/09/26 06:19:45;;;;;;;;;;;;;;;19.73;75.42;99734.50;5083353;28;19999;-70
2023/09/26 06:22:10;;;;;;;;;;;;;;;19.94;74.35;99723.75;5087986;28;20005;-69
2023/09/26 06:24:35;;;;;;;;;;;;;;;20.09;73.61;99727.53;5091886;28;19959;-70
2023/09/26 06:27:00;;;;;;;;;;;;;;;20.29;72.00;99725.22;5092727;28;19955;-70
2023/09/26 06:29:26;;;;;;;;;;;;;;;20.52;70.42;99727.81;5074649;28;19920;-72
2023/09/26 06:31:51;;;;;;;;;;;;;;;20.42;69.87;99728.56;5072158;28;20394;-70
2023/09/26 06:34:16;;;;;;;;;;;;;;;20.41;68.82;99726.94;5073829;28;19920;-72
2023/09/26 06:36:42;;;;;;;;;;;;;;;20.13;69.62;99728.34;5071423;28;20003;-73
2023/09/26 06:39:09;;;;;;;;;;;;;;;20.26;70.00;99735.34;5070315;28;20010;-74
2023/09/26 06:41:34;;;;;;;;;;;;;;;20.56;69.26;99742.84;5072889;28;20318;-71
2023/09/26 06:44:00;;;;;;;;;;;;;;;20.83;68.01;99739.75;5080079;28;19916;-72
2023/09/26 06:46:25;;;;;;;;;;;;;;;20.85;67.51;99739.38;5077214;28;19920;-71
2023/09/26 06:48:52;;;;;;;;;;;;;;;20.99;66.28;99738.59;5083736;28;20008;-70
2023/09/26 06:51:17;;;;;;;;;;;;;;;20.89;65.24;99738.19;5074806;28;19999;-71
2023/09/26 06:53:42;;;;;;;;;;;;;;;20.98;64.78;99737.81;5078842;28;19919;-71
2023/09/26 06:56:08;;;;;;;;;;;;;;;20.69;65.29;99742.50;5078882;28;19923;-72
2023/09/26 06:58:34;;;;;;;;;;;;;;;20.58;64.79;99736.78;5082548;28;19919;-72
2023/09/26 07:00:59;;;;;;;;;;;;;;;20.75;65.34;99740.91;5079528;28;19924;-71
2023/09/26 07:03:27;;;;;;;;;;;;;;;20.87;63.89;99737.75;5077274;28;19975;-71
2023/09/26 07:05:52;;;;;;;;;;;;;;;20.84;64.32;99735.69;5086840;28;20339;-72
2023/09/26 07:08:17;;;;;;;;;;;;;;;21.06;62.78;99747.16;5078461;28;19956;-68
2023/09/26 07:10:43;;;;;;;;;;;;;;;20.94;62.63;99733.31;5089802;28;20006;-68
2023/09/26 07:13:08;;;;;;;;;;;;;;;21.10;61.81;99736.63;5089083;28;20401;-68
2023/09/26 07:15:33;;;;;;;;;;;;;;;21.24;61.79;99737.91;5078758;28;19921;-70
2023/09/26 07:17:59;;;;;;;;;;;;;;;21.24;62.15;99746.44;5071625;28;19912;-71
2023/09/26 07:20:24;;;;;;;;;;;;;;;21.52;61.25;99739.19;5071534;28;19995;-72
2023/09/26 07:22:50;;;;;;;;;;;;;;;21.83;60.74;99739.63;5071366;28;19924;-72
2023/09/26 07:25:15;;;;;;;;;;;;;;;21.44;61.37;99738.34;5069821;28;19916;-71
2023/09/26 07:27:40;;;;;;;;;;;;;;;21.73;60.39;99736.41;5071162;28;19924;-71
2023/09/26 07:30:07;;;;;;;;;;;;;;;21.87;60.24;99737.63;5082617;28;19920;-71
2023/09/26 07:32:32;;;;;;;;;;;;;;;21.95;60.27;99746.97;5075293;28;20438;-73
2023/09/26 07:34:57;;;;;;;;;;;;;;;21.86;60.10;99738.84;5075372;28;19940;-70
2023/09/26 07:37:23;;;;;;;;;;;;;;;21.89;60.22;99743.72;5080449;28;19916;-70
2023/09/26 07:39:51;;;;;;;;;;;;;;;21.98;60.73;99740.47;5076365;28;19935;-69
2023/09/26 07:42:17;;;;;;;;;;;;;;;22.24;60.34;99746.94;5085737;28;20397;-69
2023/09/26 07:44:42;;;;;;;;;;;;;;;22.58;59.12;99733.09;5085712;28;19924;-70
2023/09/26 07:47:08;;;;;;;;;;;;;;;22.90;57.56;99742.75;5081220;28;19924;-70
2023/09/26 07:49:34;;;;;;;;;;;;;;;22.89;56.74;99741.13;5074181;28;20382;-69
2023/09/26 07:51:59;;;;;;;;;;;;;;;22.65;56.91;99737.94;5075081;28;19912;-70
2023/09/26 07:54:25;;;;;;;;;;;;;;;22.55;55.90;99730.25;5074859;28;20394;-70
2023/09/26 07:56:50;;;;;;;;;;;;;;;22.73;57.01;99744.44;5074708;28;19916;-70
2023/09/26 07:59:16;;;;;;;;;;;;;;;22.99;56.02;99739.44;5078973;28;19920;-67
2023/09/26 08:01:42;;;;;;;;;;;;;;;23.26;54.05;99741.75;5094630;28;19927;-69
2023/09/26 08:04:07;;;;;;;;;;;;;;;23.69;53.76;99743.56;5085743;28;19913;-69
2023/09/26 08:06:33;;;;;;;;;;;;;;;23.57;51.23;99739.19;5074833;28;20322;-69
2023/09/26 08:08:58;;;;;;;;;;;;;;;23.32;55.88;99742.16;5076654;28;19916;-68
2023/09/26 08:11:27;;;;;;;;;;;;;;;23.57;52.27;99744.88;5094955;28;20360;-68
2023/09/26 08:13:53;;;;;;;;;;;;;;;23.81;52.54;99742.25;5081994;28;19919;-69
2023/09/26 08:16:18;;;;;;;;;;;;;;;24.25;50.99;99735.00;5074475;28;19917;-68
2023/09/26 08:18:44;;;;;;;;;;;;;;;24.46;51.75;99740.91;5074473;28;19913;-68
2023/09/26 08:21:09;;;;;;;;;;;;;;;24.51;51.31;99737.56;5075105;28;20011;-68
2023/09/26 08:23:35;;;;;;;;;;;;;;;24.65;51.00;99745.19;5074638;28;19920;-68
2023/09/26 08:26:02;;;;;;;;;;;;;;;24.64;50.42;99743.56;5074271;28;19924;-69
2023/09/26 08:28:28;;;;;;;;;;;;;;;24.70;49.23;99739.00;5078076;28;20003;-68
2023/09/26 08:30:57;;;;;;;;;;;;;;;24.45;49.96;99745.00;5072814;28;19919;-70
2023/09/26 08:33:23;;;;;;;;;;;;;;;24.44;51.10;99740.53;5074217;28;19923;-70
2023/09/26 08:35:49;;;;;;;;;;;;;;;24.46;51.14;99735.19;5078416;28;19963;-71
2023/09/26 08:38:14;;;;;;;;;;;;;;;24.58;50.69;99743.22;5074723;28;19912;-70
2023/09/26 08:40:40;;;;;;;;;;;;;;;24.66;51.35;99738.22;5078255;28;19951;-70
2023/09/26 08:43:05;;;;;;;;;;;;;;;24.71;52.06;99732.03;5081109;28;19947;-70
2023/09/26 08:45:31;;;;;;;;;;;;;;;24.72;52.11;99738.56;5078942;28;19924;-70
2023/09/26 08:47:58;;;;;;;;;;;;;;;25.02;51.11;99737.00;5077300;28;19948;-70
2023/09/26 08:50:23;;;;;;;;;;;;;;;25.09;50.54;99742.66;5079439;28;19973;-68
2023/09/26 08:52:49;;;;;;;;;;;;;;;24.87;51.13;99742.13;5081636;28;19920;-68
2023/09/26 08:55:14;;;;;;;;;;;;;;;24.71;52.50;99737.75;5085686;28;20358;-68
2023/09/26 08:57:40;;;;;;;;;;;;;;;24.84;52.34;99740.09;5086581;28;19924;-69
2023/09/26 09:00:07;;;;;;;;;;;;;;;24.79;51.51;99739.34;5072382;28;19950;-68
2023/09/26 09:02:33;;;;;;;;;;;;;;;24.56;52.03;99733.44;5082422;28;19931;-69
2023/09/26 09:04:58;;;;;;;;;;;;;;;24.82;51.17;99729.09;5080672;28;20011;-71
2023/09/26 09:07:24;;;;;;;;;;;;;;;24.88;50.95;99726.56;5078534;28;20425;-70
2023/09/26 09:10:06;;;;;;;;;;;;;;;24.79;50.58;99730.75;5079533;28;19920;-68
2023/09/26 09:12:32;;;;;;;;;;;;;;;24.49;51.07;99723.69;5072953;28;20010;-67
2023/09/26 09:14:57;;;;;;;;;;;;;;;24.63;51.89;99727.66;5072620;28;20377;-68
2023/09/26 09:17:23;;;;;;;;;;;;;;;24.78;52.15;99728.31;5083017;28;19920;-68
2023/09/26 09:19:50;;;;;;;;;;;;;;;25.31;51.30;99711.69;5078738;28;19916;-69
2023/09/26 09:22:17;;;;;;;;;;;;;;;25.46;48.74;99714.31;5091001;28;19924;-70
2023/09/26 09:24:43;;;;;;;;;;;;;;;25.69;49.79;99715.63;5083109;28;19970;-70
2023/09/26 09:27:08;;;;;;;;;;;;;;;25.81;48.68;99715.03;5076684;28;19916;-69
2023/09/26 09:29:35;;;;;;;;;;;;;;;25.61;48.11;99707.19;5081913;28;20066;-73
2023/09/26 09:32:00;;;;;;;;;;;;;;;25.75;48.16;99708.97;5076121;28;19944;-74
2023/09/26 09:34:27;;;;;;;;;;;;;;;26.06;47.38;99706.03;5090144;28;20314;-71
2023/09/26 09:36:54;;;;;;;;;;;;;;;26.35;45.58;99707.59;5084865;28;19984;-73
2023/09/26 09:39:22;;;;;;;;;;;;;;;26.44;44.73;99715.59;5073167;28;20401;-72
2023/09/26 09:41:48;;;;;;;;;;;;;;;26.66;45.13;99721.72;5078576;28;19930;-72
2023/09/26 09:44:13;;;;;;;;;;;;;;;26.59;43.96;99705.47;5085276;28;19916;-72
2023/09/26 09:46:39;;;;;;;;;;;;;;;26.55;43.33;99706.81;5074076;28;20054;-70
2023/09/26 09:49:08;;;;;;;;;;;;;;;26.06;44.58;99702.31;5076226;28;20017;-70
2023/09/26 09:51:34;;;;;;;;;;;;;;;26.36;45.05;99700.59;5089191;28;20401;-73
2023/09/26 09:54:00;;;;;;;;;;;;;;;26.57;43.39;99696.50;5078487;28;19924;-72
2023/09/26 09:56:26;;;;;;;;;;;;;;;26.51;44.26;99688.84;5076232;28;19920;-72
2023/09/26 09:58:51;;;;;;;;;;;;;;;26.87;43.40;99688.13;5072877;28;20477;-72
2023/09/26 10:01:20;;;;;;;;;;;;;;;26.95;44.40;99681.00;5076999;28;20383;-74
2023/09/26 10:03:50;;;;;;;;;;;;;;;26.99;42.99;99681.72;5076084;28;19920;-75
2023/09/26 10:06:16;;;;;;;;;;;;;;;27.14;43.27;99678.53;5078801;28;19946;-73
2023/09/26 10:08:42;;;;;;;;;;;;;;;27.10;43.02;99692.16;5090576;28;20356;-73
2023/09/26 10:11:08;;;;;;;;;;;;;;;26.77;43.47;99687.88;5084352;28;20427;-73
2023/09/26 10:13:33;;;;;;;;;;;;;;;27.11;42.39;99676.56;5072161;28;19916;-74
2023/09/26 10:16:03;;;;;;;;;;;;;;;27.04;41.91;99664.00;5077863;28;19928;-74
2023/09/26 10:18:29;;;;;;;;;;;;;;;27.07;43.63;99678.72;5074592;28;19920;-73
2023/09/26 10:20:55;;;;;;;;;;;;;;;27.15;43.40;99671.53;5076605;28;19959;-73
2023/09/26 10:23:21;;;;;;;;;;;;;;;27.21;42.47;99666.91;5075547;28;20365;-72
2023/09/26 10:25:47;;;;;;;;;;;;;;;27.22;41.75;99662.78;5085746;28;19928;-73
2023/09/26 10:28:12;;;;;;;;;;;;;;;27.46;42.25;99659.75;5081849;28;20355;-73
2023/09/26 10:30:44;;;;;;;;;;;;;;;27.36;41.79;99657.94;5078146;28;19923;-72
2023/09/26 10:33:10;;;;;;;;;;;;;;;27.54;41.77;99654.66;5077724;28;20310;-73
2023/09/26 10:35:41;;;;;;;;;;;;;;;27.53;41.55;99659.63;5075053;28;19927;-73
2023/09/26 10:38:15;;;;;;;;;;;;;;;27.57;41.07;99654.59;5077850;28;19923;-72
2023/09/26 10:40:41;;;;;;;;;;;;;;;27.73;40.97;99655.81;5085326;28;19986;-72
2023/09/26 10:43:06;;;;;;;;;;;;;;;27.54;41.47;99649.75;5077343;28;20065;-73
2023/09/26 10:45:31;;;;;;;;;;;;;;;27.08;41.85;99655.28;5073502;28;19927;-72
2023/09/26 10:47:57;;;;;;;;;;;;;;;26.99;42.69;99647.28;5080207;28;19932;-72
2023/09/26 10:50:24;;;;;;;;;;;;;;;27.00;42.84;99651.78;5079640;28;19986;-72
2023/09/26 10:52:49;;;;;;;;;;;;;;;27.35;42.13;99641.97;5083493;28;19962;-72
2023/09/26 10:55:19;;;;;;;;;;;;;;;27.54;41.53;99644.00;5082707;28;20007;-73
2023/09/26 10:57:45;;;;;;;;;;;;;;;27.73;40.14;99650.09;5087531;28;20283;-73
2023/09/26 11:00:11;;;;;;;;;;;;;;;27.74;40.36;99648.81;5086120;28;20003;-73
2023/09/26 11:02:37;;;;;;;;;;;;;;;27.73;39.13;99642.28;5085292;28;19951;-73
2023/09/26 11:05:09;;;;;;;;;;;;;;;27.74;39.21;99648.81;5082446;28;19918;-73
2023/09/26 11:07:34;;;;;;;;;;;;;;;27.59;40.26;99646.31;5077696;28;19923;-73
2023/09/26 11:10:00;;;;;;;;;;;;;;;27.32;39.93;99641.63;5076197;28;20003;-74
2023/09/26 11:12:26;;;;;;;;;;;;;;;27.13;40.02;99643.28;5078069;28;19967;-75
2023/09/26 11:14:54;;;;;;;;;;;;;;;27.14;39.67;99644.09;5075202;28;19946;-75
2023/09/26 11:17:19;;;;;;;;;;;;;;;27.05;40.47;99642.66;5083649;28;19971;-75
2023/09/26 11:19:44;;;;;;;;;;;;;;;27.11;40.83;99642.13;5079684;28;20386;-75
2023/09/26 11:22:10;;;;;;;;;;;;;;;27.25;40.64;99638.13;5081916;28;19920;-75
2023/09/26 11:24:35;;;;;;;;;;;;;;;27.28;40.55;99629.41;5078505;28;20370;-75
2023/09/26 11:27:08;;;;;;;;;;;;;;;27.19;40.62;99626.34;5080245;28;19922;-75
2023/09/26 11:29:35;;;;;;;;;;;;;;;27.38;40.40;99633.28;5071575;28;20326;-75
2023/09/26 11:32:01;;;;;;;;;;;;;;;27.57;39.17;99637.34;5074412;28;20382;-75
2023/09/26 11:34:26;;;;;;;;;;;;;;;27.66;39.50;99630.19;5087411;28;20383;-75
2023/09/26 11:36:51;;;;;;;;;;;;;;;27.50;39.98;99631.75;5077565;28;19943;-75
2023/09/26 11:39:18;;;;;;;;;;;;;;;27.25;39.84;99635.25;5075337;28;19923;-75
2023/09/26 11:41:43;;;;;;;;;;;;;;;27.19;40.36;99626.34;5084452;28;20217;-75
2023/09/26 11:44:10;;;;;;;;;;;;;;;27.55;40.72;99637.00;5073951;28;19916;-75
2023/09/26 11:46:49;;;;;;;;;;;;;;;27.52;40.52;99626.38;5082279;28;19923;-75
2023/09/26 11:49:16;;;;;;;;;;;;;;;27.05;40.98;99619.69;5070866;28;19923;-75
2023/09/26 11:51:41;;;;;;;;;;;;;;;27.04;41.32;99623.81;5081963;28;19916;-75
2023/09/26 11:54:07;;;;;;;;;;;;;;;26.87;41.27;99627.88;5083060;28;20441;-75
2023/09/26 11:56:33;;;;;;;;;;;;;;;26.90;41.39;99624.94;5071215;28;19913;-75
2023/09/26 11:58:59;;;;;;;;;;;;;;;27.25;41.13;99620.88;5070955;28;20400;-75
2023/09/26 12:01:24;;;;;;;;;;;;;;;27.58;40.48;99623.81;5071844;28;20040;-76
2023/09/26 12:03:50;;;;;;;;;;;;;;;27.78;40.24;99617.13;5076582;28;19967;-76
2023/09/26 12:06:15;;;;;;;;;;;;;;;27.81;39.66;99619.09;5088086;28;20003;-75
2023/09/26 12:08:40;;;;;;;;;;;;;;;28.03;40.01;99613.59;5076816;28;19923;-76
2023/09/26 12:11:05;;;;;;;;;;;;;;;28.44;39.98;99620.69;5084144;28;19922;-76
2023/09/26 12:13:31;;;;;;;;;;;;;;;28.63;39.12;99612.34;5070624;28;20002;-74
2023/09/26 12:15:57;;;;;;;;;;;;;;;28.78;38.55;99609.84;5073492;28;19926;-74
2023/09/26 12:18:22;;;;;;;;;;;;;;;28.85;38.04;99611.72;5078016;28;19924;-74
2023/09/26 12:20:55;;;;;;;;;;;;;;;28.71;38.19;99612.91;5082578;28;19916;-74
2023/09/26 12:23:24;;;;;;;;;;;;;;;28.78;37.60;99611.91;5090457;28;19951;-74
2023/09/26 12:25:49;;;;;;;;;;;;;;;28.70;37.93;99606.34;5077817;28;19920;-76
2023/09/26 12:28:17;;;;;;;;;;;;;;;28.88;38.98;99604.22;5082503;28;19927;-74
2023/09/26 12:30:43;;;;;;;;;;;;;;;28.73;38.38;99611.22;5090894;28;19912;-74
2023/09/26 12:33:08;;;;;;;;;;;;;;;28.45;38.40;99602.16;5090003;28;20442;-73
2023/09/26 12:35:33;;;;;;;;;;;;;;;28.32;38.82;99598.44;5084036;28;19924;-74
2023/09/26 12:38:00;;;;;;;;;;;;;;;28.30;38.64;99598.91;5089444;28;20402;-73
2023/09/26 12:40:26;;;;;;;;;;;;;;;28.03;38.76;99600.00;5092848;28;20247;-73